HESN

Aswan International Airport

Aswan, Egypt
METAR HESN 211200Z 34005KT CAVOK 30/M01 Q1008 NOSIG
Observed Flight Rules
Feb-21 @ 12:00 UTC (an hour ago) Visual Flight Rules
Wind Visibility Clouds
340° at 5 knots 10,000+ meters
  • Clear skies
Temperatures Readings
Current 30°C / 86°F
Dewpoint -1°C / 30°F
Humidity 13%
Altimeter 29.76" Hg
Pressure 1008 hPa
Elevation 194
METAR HESN 211200Z 34005KT CAVOK 30/M01 Q1008 NOSIG
Observed Flight Rules
Feb-21 @ 12:00 UTC
(an hour ago)
VFR
Wind Visibility
340° at 5 knots 10,000+ meters
Clouds
  • Clear skies
Temperature Dewpoint
30°C / 86°F -1°C / 30°F
Humidity Altimeter Pressure
13% 29.76" Hg 1008 hPa